Airport View

Enter AWOS ICAO identifier for current METAR.

ex. KFNL

KTDF 031710Z AUTO 31005KT 10SM CLR 30/17 A3000 RMK AO2

3 Jul 2020 17:26

Frequency: 126.725

Phone: 336-364-1651

Other Area AWOS: KIGX - KHNZ - KRDU - KW78

TAF KRDU 031120Z 0312/0412 VRB03KT P6SM SCT250 TEMPO 0317/0321 BKN050